createdAt,value
2022-08-16T00:00:22.193Z,22.40
2022-08-16T00:02:54.021Z,22.30
2022-08-16T00:05:25.284Z,22.30
2022-08-16T00:07:59.074Z,22.30
2022-08-16T00:10:33.336Z,22.30
2022-08-16T00:13:03.756Z,22.30
2022-08-16T00:15:51.887Z,22.30
2022-08-16T00:18:29.498Z,22.20
2022-08-16T00:21:00.878Z,22.20
2022-08-16T00:23:34.644Z,22.20
2022-08-16T00:26:36.487Z,22.20
2022-08-16T00:29:00.975Z,22.20
2022-08-16T00:32:00.065Z,22.20
2022-08-16T00:34:44.028Z,22.30
2022-08-16T00:37:20.276Z,22.30
2022-08-16T00:39:57.248Z,22.30
2022-08-16T00:42:31.645Z,22.30
2022-08-16T00:45:15.057Z,22.30
2022-08-16T00:47:50.488Z,22.30
2022-08-16T00:50:36.018Z,22.20
2022-08-16T00:53:08.253Z,22.10
2022-08-16T00:55:40.182Z,22.10
2022-08-16T00:58:13.040Z,22.00
2022-08-16T01:00:54.006Z,22.00
2022-08-16T01:03:31.685Z,22.00
2022-08-16T01:06:39.584Z,22.00
2022-08-16T01:08:59.899Z,22.00
2022-08-16T01:11:31.014Z,22.00
2022-08-16T01:14:09.234Z,22.10
2022-08-16T01:16:41.106Z,22.00
2022-08-16T01:19:23.457Z,22.00
2022-08-16T01:22:48.318Z,22.00
2022-08-16T01:24:56.844Z,22.00
2022-08-16T01:27:34.577Z,21.90
2022-08-16T01:30:19.327Z,21.90
2022-08-16T01:33:01.601Z,22.00
2022-08-16T01:35:47.351Z,21.90
2022-08-16T01:38:28.490Z,21.90
2022-08-16T01:41:03.911Z,21.90
2022-08-16T01:43:34.865Z,21.80
2022-08-16T01:46:29.704Z,21.70
2022-08-16T01:49:02.949Z,21.70
2022-08-16T01:51:34.011Z,21.70
2022-08-16T01:54:10.003Z,21.70
2022-08-16T01:56:46.223Z,21.70
2022-08-16T01:59:19.387Z,21.60
2022-08-16T02:01:52.815Z,21.60
2022-08-16T02:04:49.587Z,21.60
2022-08-16T02:07:23.950Z,21.50
2022-08-16T02:09:56.978Z,21.50
2022-08-16T02:12:43.569Z,21.50
2022-08-16T02:15:25.344Z,21.40
2022-08-16T02:17:56.226Z,21.40
2022-08-16T02:20:27.780Z,21.40
2022-08-16T02:22:58.490Z,21.30
2022-08-16T02:25:51.221Z,21.30
2022-08-16T02:28:24.807Z,21.30
2022-08-16T02:30:55.697Z,21.20
2022-08-16T02:33:42.784Z,21.20
2022-08-16T02:36:47.753Z,21.20
2022-08-16T02:39:10.107Z,21.20
2022-08-16T02:41:42.734Z,21.20
2022-08-16T02:44:16.435Z,21.20
2022-08-16T02:46:53.686Z,21.20
2022-08-16T02:49:32.207Z,21.20
2022-08-16T02:52:17.223Z,21.20
2022-08-16T02:54:59.577Z,21.20
2022-08-16T02:57:31.115Z,21.20
2022-08-16T03:00:33.908Z,21.20
2022-08-16T03:02:58.929Z,21.20
2022-08-16T03:05:30.879Z,21.10
2022-08-16T03:08:01.998Z,21.10
2022-08-16T03:10:33.695Z,21.10
2022-08-16T03:13:12.255Z,21.10
2022-08-16T03:15:45.859Z,21.10
2022-08-16T03:18:34.665Z,21.40
2022-08-16T03:21:10.217Z,21.40
2022-08-16T03:23:44.164Z,21.40
2022-08-16T03:26:15.336Z,21.60
2022-08-16T03:28:51.399Z,21.60
2022-08-16T03:31:25.650Z,21.60
2022-08-16T03:34:05.014Z,21.70
2022-08-16T03:36:35.626Z,21.60
2022-08-16T03:39:06.319Z,21.70
2022-08-16T03:41:50.255Z,21.70
2022-08-16T03:44:44.042Z,21.70
2022-08-16T03:47:19.191Z,21.80
2022-08-16T03:49:51.783Z,21.80
2022-08-16T03:52:23.458Z,21.80
2022-08-16T03:54:57.912Z,21.80
2022-08-16T03:57:31.933Z,21.70
2022-08-16T04:00:35.322Z,21.70
2022-08-16T04:03:09.830Z,21.70
2022-08-16T04:05:46.764Z,21.70
2022-08-16T04:08:23.794Z,21.70
2022-08-16T04:10:57.878Z,21.70
2022-08-16T04:14:00.062Z,21.70
2022-08-16T04:16:27.383Z,21.70
2022-08-16T04:19:04.369Z,21.60
2022-08-16T04:21:35.586Z,21.60
2022-08-16T04:24:07.901Z,21.50
2022-08-16T04:26:46.181Z,21.40
2022-08-16T04:29:21.747Z,21.40
2022-08-16T04:31:58.068Z,21.40
2022-08-16T04:34:33.589Z,21.30
2022-08-16T04:37:04.229Z,21.30
2022-08-16T04:39:46.648Z,21.40
2022-08-16T04:42:19.000Z,21.40
2022-08-16T04:44:58.599Z,21.40
2022-08-16T04:47:35.962Z,21.30
2022-08-16T04:50:12.009Z,21.20
2022-08-16T04:52:47.224Z,21.30
2022-08-16T04:55:21.287Z,21.20
2022-08-16T04:58:02.890Z,21.30
2022-08-16T05:00:53.028Z,21.30
2022-08-16T05:03:23.475Z,21.30
2022-08-16T05:05:59.816Z,21.20
2022-08-16T05:08:36.429Z,21.20
2022-08-16T05:11:09.965Z,21.30
2022-08-16T05:13:45.187Z,21.30
2022-08-16T05:16:21.425Z,21.40
2022-08-16T05:18:56.909Z,21.40
2022-08-16T05:21:38.205Z,21.40
2022-08-16T05:24:10.388Z,21.50
2022-08-16T05:26:43.266Z,21.50
2022-08-16T05:29:20.492Z,21.50
2022-08-16T05:31:52.994Z,21.60
2022-08-16T05:34:25.250Z,21.60
2022-08-16T05:36:58.832Z,21.60
2022-08-16T05:39:29.739Z,21.70
2022-08-16T05:42:03.797Z,21.80
2022-08-16T05:44:33.819Z,21.80
2022-08-16T05:47:04.990Z,21.90
2022-08-16T05:49:39.555Z,21.80
2022-08-16T05:52:17.326Z,21.80
2022-08-16T05:55:01.294Z,21.90
2022-08-16T05:57:35.439Z,21.90
2022-08-16T06:00:09.331Z,21.80
2022-08-16T06:02:40.682Z,21.80
2022-08-16T06:05:11.885Z,21.70
2022-08-16T06:07:58.312Z,21.70
2022-08-16T06:10:32.911Z,21.70
2022-08-16T06:13:03.781Z,21.70
2022-08-16T06:15:33.906Z,21.70
2022-08-16T06:18:05.445Z,21.80
2022-08-16T06:20:36.883Z,21.80
2022-08-16T06:23:28.622Z,21.90
2022-08-16T06:26:03.049Z,21.90
2022-08-16T06:28:38.471Z,22.00
2022-08-16T06:31:12.330Z,22.00
2022-08-16T06:33:44.928Z,22.00
2022-08-16T06:36:16.812Z,22.10
2022-08-16T06:38:55.836Z,22.30
2022-08-16T06:41:27.795Z,22.40
2022-08-16T06:43:58.191Z,22.40
2022-08-16T06:46:34.164Z,22.60
2022-08-16T06:49:05.477Z,22.70
2022-08-16T06:51:48.163Z,22.70
2022-08-16T06:54:21.486Z,22.80
2022-08-16T06:56:53.962Z,22.90
2022-08-16T06:59:25.802Z,22.90
2022-08-16T07:01:56.404Z,23.00
2022-08-16T07:04:32.445Z,23.20
2022-08-16T07:07:03.537Z,23.20
2022-08-16T07:09:36.132Z,23.20
2022-08-16T07:12:07.687Z,23.30
2022-08-16T07:14:37.869Z,23.40
2022-08-16T07:17:12.651Z,23.50
2022-08-16T07:20:29.533Z,23.60
2022-08-16T07:22:38.742Z,23.60
2022-08-16T07:25:25.930Z,23.80
2022-08-16T07:27:56.279Z,23.80
2022-08-16T07:30:45.402Z,23.90
2022-08-16T07:33:21.380Z,24.00
2022-08-16T07:36:09.662Z,24.00
2022-08-16T07:38:40.311Z,23.90
2022-08-16T07:41:13.741Z,23.90
2022-08-16T07:46:39.299Z,24.10
2022-08-16T07:49:11.528Z,24.10
2022-08-16T07:51:42.243Z,24.20
2022-08-16T07:54:21.399Z,24.20
2022-08-16T07:57:05.370Z,24.20
2022-08-16T07:59:42.685Z,24.30
2022-08-16T08:02:14.222Z,24.40
2022-08-16T08:04:51.253Z,24.40
2022-08-16T08:07:21.722Z,24.60
2022-08-16T08:09:53.225Z,24.80
2022-08-16T08:12:32.368Z,24.80
2022-08-16T08:15:09.811Z,25.00
2022-08-16T08:17:42.726Z,25.20
2022-08-16T08:20:20.771Z,25.40
2022-08-16T08:23:01.293Z,25.60
2022-08-16T08:25:53.712Z,25.70
2022-08-16T08:28:26.426Z,25.90
2022-08-16T08:31:00.908Z,26.10
2022-08-16T08:33:32.237Z,26.60
2022-08-16T08:36:08.587Z,27.30
2022-08-16T08:38:44.939Z,28.00
2022-08-16T08:41:18.957Z,28.60
2022-08-16T08:43:52.653Z,29.00
2022-08-16T08:46:22.929Z,29.30
2022-08-16T08:48:59.869Z,29.40
2022-08-16T08:51:36.887Z,29.60
2022-08-16T08:54:09.656Z,29.80
2022-08-16T08:56:45.812Z,30.10
2022-08-16T08:59:20.417Z,30.70
2022-08-16T09:01:56.522Z,30.80
2022-08-16T09:04:28.924Z,30.50
2022-08-16T09:07:01.332Z,30.40
2022-08-16T09:09:33.674Z,30.70
2022-08-16T09:12:06.777Z,30.90
2022-08-16T09:14:50.927Z,31.00
2022-08-16T09:17:45.669Z,30.90
2022-08-16T09:20:14.525Z,30.70
2022-08-16T09:22:51.422Z,30.80
2022-08-16T09:25:26.402Z,30.90
2022-08-16T09:28:09.245Z,30.50
2022-08-16T09:30:44.276Z,30.50
2022-08-16T09:33:20.489Z,30.20
2022-08-16T09:35:53.378Z,30.10
2022-08-16T09:38:32.063Z,30.00
2022-08-16T09:41:04.229Z,29.90
2022-08-16T09:43:59.614Z,30.10
2022-08-16T09:46:45.578Z,30.00
2022-08-16T09:49:19.713Z,30.00
2022-08-16T09:51:53.680Z,30.20
2022-08-16T09:54:24.106Z,30.20
2022-08-16T09:57:02.929Z,30.50
2022-08-16T09:59:38.856Z,31.10
2022-08-16T10:02:26.155Z,31.50
2022-08-16T10:04:59.014Z,31.80
2022-08-16T10:07:44.505Z,31.70
2022-08-16T10:10:18.987Z,31.90
2022-08-16T10:13:14.243Z,32.40
2022-08-16T10:15:53.343Z,32.50
2022-08-16T10:18:56.308Z,32.90
2022-08-16T10:21:20.754Z,33.60
2022-08-16T10:23:54.886Z,33.70
2022-08-16T10:27:21.946Z,33.30
2022-08-16T10:29:19.981Z,33.30
2022-08-16T10:31:53.839Z,33.20
2022-08-16T10:34:31.130Z,33.60
2022-08-16T10:37:02.786Z,33.70
2022-08-16T10:39:41.856Z,33.70
2022-08-16T10:42:13.660Z,34.10
2022-08-16T10:44:53.813Z,34.00
2022-08-16T10:47:26.505Z,34.00
2022-08-16T10:50:03.317Z,33.90
2022-08-16T10:55:40.856Z,34.10
2022-08-16T10:58:17.485Z,34.00
2022-08-16T11:00:52.113Z,33.80
2022-08-16T11:03:46.115Z,33.70
2022-08-16T11:06:18.826Z,33.70
2022-08-16T11:14:37.999Z,32.60
2022-08-16T11:17:11.377Z,32.30
2022-08-16T11:22:41.913Z,31.70
2022-08-16T11:28:36.503Z,31.60
2022-08-16T11:31:04.720Z,31.60
2022-08-16T11:36:28.249Z,31.70
2022-08-16T11:39:02.833Z,32.00
2022-08-16T11:41:36.120Z,32.00
2022-08-16T11:44:07.205Z,32.00
2022-08-16T11:46:44.990Z,31.90
2022-08-16T11:49:17.523Z,31.90
2022-08-16T11:51:49.740Z,31.80
2022-08-16T11:54:27.233Z,31.70
2022-08-16T11:57:09.348Z,31.60
2022-08-16T11:59:41.184Z,31.50
2022-08-16T12:02:30.971Z,31.50
2022-08-16T12:05:02.600Z,31.40
2022-08-16T12:07:33.363Z,31.60
2022-08-16T12:10:08.850Z,31.80
2022-08-16T12:12:39.200Z,31.80
2022-08-16T12:15:10.997Z,31.80
2022-08-16T12:17:41.707Z,32.00
2022-08-16T12:20:18.598Z,32.00
2022-08-16T12:22:51.243Z,32.00
2022-08-16T12:25:27.733Z,31.90
2022-08-16T12:27:58.507Z,31.80
2022-08-16T12:30:38.622Z,31.80
2022-08-16T12:33:13.691Z,31.70
2022-08-16T12:35:44.120Z,31.80
2022-08-16T12:38:41.284Z,31.90
2022-08-16T12:41:08.135Z,32.00
2022-08-16T12:43:44.653Z,31.70
2022-08-16T12:46:15.731Z,31.60
2022-08-16T12:48:59.046Z,31.40
2022-08-16T12:51:33.088Z,31.30
2022-08-16T12:54:22.505Z,31.40
2022-08-16T12:56:56.372Z,31.30
2022-08-16T12:59:31.032Z,31.20
2022-08-16T13:02:02.058Z,31.30
2022-08-16T13:04:33.894Z,31.30
2022-08-16T13:07:06.107Z,31.40
2022-08-16T13:09:48.007Z,31.40
2022-08-16T13:12:25.041Z,31.40
2022-08-16T13:14:56.239Z,31.50
2022-08-16T13:17:29.840Z,31.50
2022-08-16T13:20:07.549Z,31.60
2022-08-16T13:25:31.730Z,31.50
2022-08-16T13:28:05.437Z,31.40
2022-08-16T13:30:41.905Z,31.40
2022-08-16T13:33:17.491Z,31.40
2022-08-16T13:35:56.381Z,31.30
2022-08-16T13:38:31.454Z,31.20
2022-08-16T13:41:08.942Z,31.30
2022-08-16T13:43:42.963Z,31.20
2022-08-16T13:46:13.232Z,31.20
2022-08-16T13:48:45.118Z,31.10
2022-08-16T13:51:18.079Z,31.00
2022-08-16T13:53:58.108Z,30.90
2022-08-16T13:56:37.008Z,31.00
2022-08-16T13:59:21.014Z,31.00
2022-08-16T14:01:55.125Z,31.10
2022-08-16T14:04:28.026Z,31.10
2022-08-16T14:06:59.223Z,31.10
2022-08-16T14:09:30.715Z,31.10
2022-08-16T14:12:09.566Z,31.10
2022-08-16T14:14:42.927Z,31.20
2022-08-16T14:17:13.069Z,31.20
2022-08-16T14:19:44.878Z,31.10
2022-08-16T14:22:30.233Z,31.10
2022-08-16T14:25:03.443Z,31.10
2022-08-16T14:27:38.926Z,31.00
2022-08-16T14:30:19.860Z,30.90
2022-08-16T14:32:51.520Z,30.70
2022-08-16T14:35:29.206Z,30.70
2022-08-16T14:38:07.960Z,30.70
2022-08-16T14:40:38.465Z,30.70
2022-08-16T14:43:10.481Z,30.70
2022-08-16T14:45:50.682Z,30.60
2022-08-16T14:48:25.931Z,30.70
2022-08-16T14:50:56.913Z,30.70
2022-08-16T14:53:27.900Z,30.80
2022-08-16T14:55:58.685Z,30.90
2022-08-16T14:58:36.811Z,30.90
2022-08-16T15:01:11.382Z,30.90
2022-08-16T15:03:44.866Z,30.90
2022-08-16T15:06:16.316Z,30.90
2022-08-16T15:08:46.794Z,30.80
2022-08-16T15:11:17.795Z,30.90
2022-08-16T15:13:47.981Z,30.90
2022-08-16T15:16:27.719Z,30.80
2022-08-16T15:18:59.799Z,30.80
2022-08-16T15:21:31.830Z,30.80
2022-08-16T15:24:03.070Z,30.80
2022-08-16T15:26:45.397Z,30.80
2022-08-16T15:29:17.531Z,30.70
2022-08-16T15:31:51.036Z,30.60
2022-08-16T15:34:31.274Z,30.60
2022-08-16T15:37:03.260Z,30.60
2022-08-16T15:39:39.436Z,30.60
2022-08-16T15:42:27.303Z,30.60
2022-08-16T15:44:58.974Z,30.60
2022-08-16T15:47:33.521Z,30.60
2022-08-16T15:50:07.005Z,30.60
2022-08-16T15:52:40.745Z,30.10
2022-08-16T15:55:31.078Z,30.40
2022-08-16T15:58:35.612Z,30.30
2022-08-16T16:00:54.290Z,30.30
2022-08-16T16:03:28.654Z,30.20
2022-08-16T16:06:06.040Z,30.30
2022-08-16T16:08:36.331Z,30.20
2022-08-16T16:11:12.062Z,30.20
2022-08-16T16:13:42.217Z,30.20
2022-08-16T16:16:19.428Z,30.30
2022-08-16T16:18:52.903Z,30.30
2022-08-16T16:21:23.273Z,30.20
2022-08-16T16:23:57.906Z,30.20
2022-08-16T16:26:30.863Z,30.20
2022-08-16T16:29:07.922Z,30.20
2022-08-16T16:31:41.520Z,30.20
2022-08-16T16:34:16.917Z,30.20
2022-08-16T16:36:48.461Z,30.20
2022-08-16T16:39:19.452Z,30.10
2022-08-16T16:41:49.960Z,30.20
2022-08-16T16:44:31.833Z,30.10
2022-08-16T16:47:07.007Z,30.10
2022-08-16T16:49:41.912Z,30.10
2022-08-16T16:52:43.552Z,30.10
2022-08-16T16:55:09.643Z,30.10
2022-08-16T16:57:52.717Z,30.00
2022-08-16T17:00:30.207Z,30.00
2022-08-16T17:03:16.825Z,30.00
2022-08-16T17:05:57.311Z,29.90
2022-08-16T17:08:34.379Z,29.80
2022-08-16T17:11:04.742Z,29.80
2022-08-16T17:13:38.731Z,29.80
2022-08-16T17:16:18.816Z,29.70
2022-08-16T17:19:14.756Z,29.70
2022-08-16T17:21:43.308Z,29.60
2022-08-16T17:24:17.654Z,29.60
2022-08-16T17:26:49.379Z,29.60
2022-08-16T17:29:29.024Z,29.50
2022-08-16T17:32:34.452Z,29.50
2022-08-16T17:34:52.313Z,29.40
2022-08-16T17:37:34.048Z,29.30
2022-08-16T17:40:25.396Z,29.30
2022-08-16T17:43:06.972Z,29.30
2022-08-16T17:45:38.008Z,29.20
2022-08-16T17:48:08.611Z,29.20
2022-08-16T17:50:39.220Z,29.20
2022-08-16T17:53:13.184Z,29.10
2022-08-16T17:55:46.721Z,29.10
2022-08-16T17:58:22.477Z,29.00
2022-08-16T18:00:55.393Z,29.00
2022-08-16T18:03:54.377Z,29.00
2022-08-16T18:06:18.908Z,28.90
2022-08-16T18:08:57.868Z,28.90
2022-08-16T18:11:34.041Z,28.90
2022-08-16T18:14:04.414Z,28.80
2022-08-16T18:16:34.737Z,28.80
2022-08-16T18:19:05.007Z,28.70
2022-08-16T18:21:47.483Z,28.70
2022-08-16T18:24:21.386Z,28.60
2022-08-16T18:26:51.499Z,28.50
2022-08-16T18:29:21.486Z,28.50
2022-08-16T18:31:51.911Z,28.50
2022-08-16T18:34:22.240Z,28.40
2022-08-16T18:36:52.357Z,28.40
2022-08-16T18:39:24.947Z,28.40
2022-08-16T18:41:55.159Z,28.40
2022-08-16T18:44:30.115Z,28.40
2022-08-16T18:47:03.467Z,28.30
2022-08-16T18:49:33.579Z,28.30
2022-08-16T18:52:03.689Z,28.20
2022-08-16T18:55:02.386Z,28.20
2022-08-16T18:57:27.152Z,28.10
2022-08-16T18:59:57.013Z,28.00
2022-08-16T19:02:57.335Z,28.00
2022-08-16T19:05:22.688Z,28.00
2022-08-16T19:07:52.837Z,28.00
2022-08-16T19:10:25.471Z,27.90
2022-08-16T19:12:55.708Z,27.80
2022-08-16T19:15:31.402Z,27.80
2022-08-16T19:18:01.685Z,27.70
2022-08-16T19:20:32.947Z,27.60
2022-08-16T19:23:06.396Z,27.50
2022-08-16T19:25:49.702Z,27.50
2022-08-16T19:28:49.934Z,27.40
2022-08-16T19:31:18.441Z,27.40
2022-08-16T19:33:54.504Z,27.30
2022-08-16T19:36:31.980Z,27.30
2022-08-16T19:39:09.042Z,27.20
2022-08-16T19:41:53.625Z,27.20
2022-08-16T19:44:24.521Z,27.10
2022-08-16T19:46:55.050Z,27.10
2022-08-16T19:49:25.305Z,27.00
2022-08-16T19:51:55.235Z,27.00
2022-08-16T19:54:25.405Z,27.00
2022-08-16T19:56:58.256Z,26.90
2022-08-16T19:59:39.504Z,26.80
2022-08-16T20:02:35.588Z,26.80
2022-08-16T20:05:08.409Z,26.80
2022-08-16T20:07:38.543Z,26.70
2022-08-16T20:10:08.937Z,26.70
2022-08-16T20:12:42.071Z,26.70
2022-08-16T20:15:15.952Z,26.60
2022-08-16T20:17:47.208Z,26.60
2022-08-16T20:20:26.175Z,26.60
2022-08-16T20:22:57.701Z,26.50
2022-08-16T20:25:32.963Z,26.50
2022-08-16T20:28:06.326Z,26.20
2022-08-16T20:30:36.547Z,26.40
2022-08-16T20:33:14.319Z,26.40
2022-08-16T20:35:45.474Z,26.40
2022-08-16T20:38:16.133Z,26.40
2022-08-16T20:40:46.319Z,26.30
2022-08-16T20:43:19.381Z,26.30
2022-08-16T20:45:50.296Z,26.20
2022-08-16T20:48:20.555Z,26.20
2022-08-16T20:50:50.460Z,26.20
2022-08-16T20:53:20.547Z,26.20
2022-08-16T20:55:51.157Z,26.10
2022-08-16T20:58:23.935Z,25.90
2022-08-16T21:00:54.241Z,25.80
2022-08-16T21:03:24.569Z,25.80
2022-08-16T21:05:55.678Z,25.80
2022-08-16T21:08:51.143Z,25.70
2022-08-16T21:11:16.537Z,25.60
2022-08-16T21:13:49.245Z,25.50
2022-08-16T21:16:20.886Z,25.50
2022-08-16T21:18:51.146Z,25.50
2022-08-16T21:21:23.151Z,25.50
2022-08-16T21:24:02.007Z,25.60
2022-08-16T21:26:32.346Z,25.50
2022-08-16T21:29:05.210Z,25.50
2022-08-16T21:31:38.174Z,25.40
2022-08-16T21:34:08.462Z,25.40
2022-08-16T21:36:39.100Z,25.40
2022-08-16T21:39:09.632Z,25.30
2022-08-16T21:41:40.077Z,25.20
2022-08-16T21:44:13.020Z,25.10
2022-08-16T21:46:43.345Z,25.10
2022-08-16T21:49:13.178Z,25.20
2022-08-16T21:51:43.421Z,25.20
2022-08-16T21:54:13.864Z,25.20
2022-08-16T21:56:44.156Z,25.20
2022-08-16T21:59:16.695Z,25.40
2022-08-16T22:01:47.350Z,25.30
2022-08-16T22:04:37.757Z,25.30
2022-08-16T22:07:07.949Z,25.20
2022-08-16T22:09:38.454Z,25.30
2022-08-16T22:12:09.632Z,25.30
2022-08-16T22:14:42.371Z,25.20
2022-08-16T22:17:12.669Z,25.30
2022-08-16T22:19:42.567Z,25.30
2022-08-16T22:22:14.197Z,25.20
2022-08-16T22:24:44.429Z,25.20
2022-08-16T22:27:14.828Z,25.20
2022-08-16T22:29:47.563Z,25.20
2022-08-16T22:32:17.773Z,25.10
2022-08-16T22:34:47.949Z,25.00
2022-08-16T22:37:18.241Z,24.90
2022-08-16T22:39:48.542Z,25.00
2022-08-16T22:42:18.766Z,25.00
2022-08-16T22:44:52.014Z,25.00
2022-08-16T22:47:22.250Z,24.90
2022-08-16T22:49:52.395Z,24.90
2022-08-16T22:52:48.787Z,24.90
2022-08-16T22:55:13.219Z,24.80
2022-08-16T22:57:43.535Z,24.80
2022-08-16T23:00:18.762Z,24.70
2022-08-16T23:02:59.832Z,24.70
2022-08-16T23:05:32.496Z,24.60
2022-08-16T23:08:03.098Z,24.60
2022-08-16T23:10:33.655Z,24.60
2022-08-16T23:13:07.302Z,24.60
2022-08-16T23:15:46.727Z,24.50
2022-08-16T23:18:26.816Z,24.50
2022-08-16T23:21:00.447Z,24.50
2022-08-16T23:23:31.529Z,24.50
2022-08-16T23:26:02.452Z,24.50
2022-08-16T23:28:52.382Z,24.50
2022-08-16T23:31:25.022Z,24.50
2022-08-16T23:33:55.291Z,24.40
2022-08-16T23:36:25.451Z,24.30
2022-08-16T23:38:55.729Z,24.30
2022-08-16T23:41:25.841Z,24.40
2022-08-16T23:43:56.034Z,24.30
2022-08-16T23:46:29.289Z,24.30
2022-08-16T23:50:01.988Z,24.20
2022-08-16T23:51:49.878Z,24.30
2022-08-16T23:54:22.609Z,24.30
2022-08-16T23:56:52.658Z,24.40
2022-08-16T23:59:22.745Z,24.50
